createdAt,value
2023-02-10T00:01:37.930Z,54.62
2023-02-10T00:04:06.598Z,54.41
2023-02-10T00:06:34.580Z,54.45
2023-02-10T00:09:04.113Z,54.40
2023-02-10T00:11:50.598Z,54.75
2023-02-10T00:14:20.332Z,54.84
2023-02-10T00:16:52.190Z,54.57
2023-02-10T00:19:22.248Z,54.35
2023-02-10T00:21:50.747Z,54.50
2023-02-10T00:24:19.619Z,54.90
2023-02-10T00:26:47.679Z,54.98
2023-02-10T00:29:16.028Z,54.51
2023-02-10T00:31:44.402Z,54.68
2023-02-10T00:34:17.257Z,54.77
2023-02-10T00:36:46.669Z,54.81
2023-02-10T00:39:16.489Z,55.37
2023-02-10T00:41:44.243Z,55.01
2023-02-10T00:44:12.673Z,55.26
2023-02-10T00:46:40.261Z,55.16
2023-02-10T00:49:08.253Z,54.79
2023-02-10T00:51:36.487Z,55.60
2023-02-10T00:54:04.483Z,55.46
2023-02-10T00:56:32.008Z,55.17
2023-02-10T00:58:59.834Z,55.36
2023-02-10T01:01:27.372Z,55.30
2023-02-10T01:03:55.304Z,55.69
2023-02-10T01:06:23.387Z,55.57
2023-02-10T01:08:51.420Z,55.33
2023-02-10T01:11:19.426Z,55.68
2023-02-10T01:13:47.954Z,55.65
2023-02-10T01:16:17.884Z,55.75
2023-02-10T01:18:46.271Z,54.82
2023-02-10T01:21:20.129Z,54.88
2023-02-10T01:23:48.739Z,54.89
2023-02-10T01:26:17.216Z,55.17
2023-02-10T01:28:45.412Z,54.66
2023-02-10T01:31:18.210Z,54.91
2023-02-10T01:33:47.607Z,54.58
2023-02-10T01:36:18.882Z,54.33
2023-02-10T01:38:47.173Z,54.78
2023-02-10T01:41:19.645Z,54.71
2023-02-10T01:44:08.173Z,54.66
2023-02-10T01:46:36.969Z,54.90
2023-02-10T01:49:15.840Z,55.38
2023-02-10T01:51:52.019Z,54.90
2023-02-10T01:54:41.815Z,54.69
2023-02-10T01:57:09.322Z,54.82
2023-02-10T01:59:40.424Z,55.49
2023-02-10T02:02:09.855Z,55.43
2023-02-10T02:04:47.700Z,55.35
2023-02-10T02:07:16.085Z,55.21
2023-02-10T02:09:44.191Z,55.71
2023-02-10T02:12:30.278Z,55.58
2023-02-10T02:15:15.795Z,55.84
2023-02-10T02:18:20.599Z,55.65
2023-02-10T02:21:43.463Z,55.88
2023-02-10T02:24:39.517Z,55.71
2023-02-10T02:27:47.004Z,55.38
2023-02-10T02:30:52.457Z,55.43
2023-02-10T02:33:34.239Z,55.70
2023-02-10T02:36:14.091Z,55.82
2023-02-10T02:38:43.629Z,55.49
2023-02-10T02:41:11.734Z,55.58
2023-02-10T02:43:42.130Z,55.48
2023-02-10T02:46:41.337Z,55.20
2023-02-10T02:49:27.486Z,55.17
2023-02-10T02:52:05.182Z,54.90
2023-02-10T02:54:56.526Z,55.43
2023-02-10T02:58:05.165Z,55.20
2023-02-10T03:00:36.061Z,55.05
2023-02-10T03:03:04.239Z,54.69
2023-02-10T03:05:33.801Z,54.57
2023-02-10T03:08:01.508Z,54.86
2023-02-10T03:10:29.468Z,54.96
2023-02-10T03:12:56.976Z,55.05
2023-02-10T03:15:24.968Z,55.36
2023-02-10T03:17:52.773Z,55.39
2023-02-10T03:20:20.684Z,55.27
2023-02-10T03:22:48.250Z,55.83
2023-02-10T03:25:16.384Z,56.47
2023-02-10T03:27:43.892Z,56.67
2023-02-10T03:30:11.936Z,56.83
2023-02-10T03:32:39.429Z,56.71
2023-02-10T03:35:07.638Z,56.93
2023-02-10T03:37:35.194Z,57.15
2023-02-10T03:40:03.187Z,57.23
2023-02-10T03:42:30.686Z,57.14
2023-02-10T03:44:58.534Z,57.28
2023-02-10T03:47:26.065Z,57.02
2023-02-10T03:49:53.813Z,57.23
2023-02-10T03:52:21.291Z,57.51
2023-02-10T03:54:49.200Z,57.28
2023-02-10T03:57:16.742Z,57.58
2023-02-10T03:59:44.562Z,57.17
2023-02-10T04:02:12.149Z,57.35
2023-02-10T04:04:40.010Z,57.35
2023-02-10T04:07:07.540Z,57.45
2023-02-10T04:09:35.336Z,57.98
2023-02-10T04:12:02.910Z,58.01
2023-02-10T04:14:30.836Z,57.95
2023-02-10T04:16:58.378Z,58.01
2023-02-10T04:19:26.290Z,58.43
2023-02-10T04:21:53.822Z,58.67
2023-02-10T04:24:21.696Z,58.45
2023-02-10T04:26:49.197Z,58.90
2023-02-10T04:29:16.954Z,58.54
2023-02-10T04:31:44.657Z,58.70
2023-02-10T04:34:12.569Z,59.09
2023-02-10T04:36:40.477Z,59.08
2023-02-10T04:39:08.384Z,59.16
2023-02-10T04:41:35.967Z,59.35
2023-02-10T04:44:04.207Z,59.44
2023-02-10T04:46:31.740Z,59.49
2023-02-10T04:48:59.575Z,59.76
2023-02-10T04:51:27.239Z,59.66
2023-02-10T04:53:55.109Z,59.37
2023-02-10T04:56:22.656Z,59.25
2023-02-10T04:58:50.700Z,59.49
2023-02-10T05:01:18.239Z,60.00
2023-02-10T05:03:46.090Z,60.19
2023-02-10T05:06:15.975Z,59.91
2023-02-10T05:08:44.642Z,60.04
2023-02-10T05:11:14.500Z,60.10
2023-02-10T05:13:43.004Z,59.27
2023-02-10T05:16:12.660Z,59.12
2023-02-10T05:18:40.930Z,59.68
2023-02-10T05:21:10.798Z,59.84
2023-02-10T05:23:41.034Z,60.35
2023-02-10T05:26:08.987Z,60.34
2023-02-10T05:28:36.858Z,60.36
2023-02-10T05:31:09.391Z,60.56
2023-02-10T05:33:37.571Z,60.33
2023-02-10T05:36:06.209Z,60.61
2023-02-10T05:38:34.400Z,60.50
2023-02-10T05:41:02.648Z,60.88
2023-02-10T05:43:30.604Z,60.77
2023-02-10T05:45:58.224Z,60.66
2023-02-10T05:48:26.249Z,60.84
2023-02-10T05:50:53.837Z,60.74
2023-02-10T05:53:21.701Z,60.63
2023-02-10T05:55:49.475Z,60.84
2023-02-10T05:58:17.445Z,60.54
2023-02-10T06:00:44.977Z,60.66
2023-02-10T06:03:12.829Z,60.75
2023-02-10T06:05:41.082Z,60.47
2023-02-10T06:08:08.874Z,60.10
2023-02-10T06:10:36.505Z,59.72
2023-02-10T06:13:04.391Z,59.87
2023-02-10T06:15:32.049Z,59.61
2023-02-10T06:17:59.912Z,59.13
2023-02-10T06:20:27.658Z,59.27
2023-02-10T06:22:55.594Z,59.13
2023-02-10T06:25:23.195Z,58.94
2023-02-10T06:27:51.128Z,59.29
2023-02-10T06:30:18.740Z,58.86
2023-02-10T06:32:46.604Z,58.02
2023-02-10T06:35:14.100Z,59.02
2023-02-10T06:37:41.949Z,58.51
2023-02-10T06:40:10.712Z,58.90
2023-02-10T06:42:38.820Z,58.96
2023-02-10T06:45:07.362Z,59.47
2023-02-10T06:47:35.978Z,59.23
2023-02-10T06:50:04.895Z,58.62
2023-02-10T06:52:32.807Z,58.01
2023-02-10T06:55:00.334Z,57.45
2023-02-10T06:57:28.274Z,56.88
2023-02-10T06:59:55.871Z,56.95
2023-02-10T07:02:23.908Z,57.08
2023-02-10T07:04:51.732Z,56.53
2023-02-10T07:07:20.216Z,56.33
2023-02-10T07:09:47.929Z,55.73
2023-02-10T07:12:15.710Z,55.02
2023-02-10T07:14:44.678Z,54.37
2023-02-10T07:17:12.574Z,54.16
2023-02-10T07:19:40.073Z,54.38
2023-02-10T07:22:07.896Z,54.13
2023-02-10T07:24:35.947Z,53.36
2023-02-10T07:27:04.882Z,53.13
2023-02-10T07:29:32.995Z,53.18
2023-02-10T07:32:01.089Z,53.50
2023-02-10T07:34:31.532Z,53.30
2023-02-10T07:36:59.848Z,53.59
2023-02-10T07:39:28.059Z,53.88
2023-02-10T07:41:56.349Z,53.38
2023-02-10T07:44:32.821Z,53.87
2023-02-10T07:47:00.791Z,52.96
2023-02-10T07:49:29.877Z,52.68
2023-02-10T07:51:57.868Z,53.36
2023-02-10T07:54:25.617Z,52.96
2023-02-10T07:56:53.772Z,52.98
2023-02-10T07:59:21.221Z,53.25
2023-02-10T08:01:49.216Z,53.02
2023-02-10T08:04:16.912Z,53.25
2023-02-10T08:06:44.975Z,53.10
2023-02-10T08:09:13.134Z,52.56
2023-02-10T08:11:43.551Z,53.12
2023-02-10T08:14:11.008Z,52.88
2023-02-10T08:16:38.932Z,52.77
2023-02-10T08:19:06.809Z,53.15
2023-02-10T08:21:34.781Z,52.64
2023-02-10T08:24:02.452Z,52.11
2023-02-10T08:26:30.573Z,52.07
2023-02-10T08:29:00.511Z,52.59
2023-02-10T08:31:29.329Z,52.61
2023-02-10T08:33:57.048Z,53.13
2023-02-10T08:36:25.161Z,52.92
2023-02-10T08:38:52.913Z,52.76
2023-02-10T08:41:21.134Z,52.25
2023-02-10T08:43:49.782Z,52.12
2023-02-10T08:46:17.791Z,51.80
2023-02-10T08:48:45.382Z,51.36
2023-02-10T08:51:16.026Z,52.06
2023-02-10T08:53:44.349Z,52.01
2023-02-10T08:56:18.560Z,51.80
2023-02-10T08:58:47.788Z,51.21
2023-02-10T09:01:25.000Z,51.31
2023-02-10T09:03:54.710Z,51.90
2023-02-10T09:06:31.462Z,51.78
2023-02-10T09:09:00.089Z,51.82
2023-02-10T09:11:28.612Z,51.17
2023-02-10T09:13:57.572Z,51.23
2023-02-10T09:16:27.115Z,50.65
2023-02-10T09:18:55.196Z,50.22
2023-02-10T09:21:23.596Z,50.13
2023-02-10T09:23:51.583Z,49.80
2023-02-10T09:26:19.731Z,49.40
2023-02-10T09:28:47.403Z,49.62
2023-02-10T09:31:19.366Z,49.06
2023-02-10T09:33:47.010Z,48.14
2023-02-10T09:36:19.334Z,48.06
2023-02-10T09:38:50.353Z,47.00
2023-02-10T09:41:36.517Z,48.10
2023-02-10T09:44:23.602Z,47.66
2023-02-10T09:47:38.260Z,47.57
2023-02-10T09:50:47.537Z,46.87
2023-02-10T09:53:22.837Z,46.01
2023-02-10T09:56:03.617Z,46.31
2023-02-10T09:58:45.692Z,45.17
2023-02-10T10:01:33.624Z,44.67
2023-02-10T10:04:11.222Z,44.76
2023-02-10T10:06:47.692Z,44.34
2023-02-10T10:09:34.712Z,43.80
2023-02-10T10:12:02.535Z,43.77
2023-02-10T10:14:41.676Z,42.71
2023-02-10T10:18:02.920Z,42.52
2023-02-10T10:20:50.085Z,42.19
2023-02-10T10:23:20.221Z,42.17
2023-02-10T10:26:02.665Z,42.45
2023-02-10T10:29:07.631Z,41.40
2023-02-10T10:31:41.185Z,41.81
2023-02-10T10:34:08.639Z,40.11
2023-02-10T10:36:39.712Z,39.63
2023-02-10T10:39:40.462Z,39.01
2023-02-10T10:42:43.168Z,39.93
2023-02-10T10:45:45.770Z,39.59
2023-02-10T10:48:15.906Z,39.64
2023-02-10T10:50:43.392Z,39.38
2023-02-10T10:53:31.133Z,39.10
2023-02-10T10:56:01.137Z,38.75
2023-02-10T10:58:41.049Z,38.54
2023-02-10T11:01:08.677Z,38.40
2023-02-10T11:03:36.521Z,36.17
2023-02-10T11:06:19.026Z,37.05
2023-02-10T11:09:07.184Z,35.51
2023-02-10T11:11:43.462Z,35.19
2023-02-10T11:14:24.665Z,36.04
2023-02-10T11:16:58.600Z,34.77
2023-02-10T11:19:37.688Z,34.37
2023-02-10T11:22:20.578Z,32.80
2023-02-10T11:25:02.216Z,33.15
2023-02-10T11:27:29.971Z,33.98
2023-02-10T11:30:02.968Z,33.19
2023-02-10T11:32:35.637Z,32.84
2023-02-10T11:35:09.953Z,32.76
2023-02-10T11:37:40.220Z,32.73
2023-02-10T11:40:29.697Z,32.16
2023-02-10T11:43:00.785Z,31.87
2023-02-10T11:45:32.125Z,30.84
2023-02-10T11:48:17.852Z,31.17
2023-02-10T11:50:47.066Z,30.29
2023-02-10T11:53:28.405Z,30.32
2023-02-10T11:56:19.047Z,30.19
2023-02-10T11:59:04.691Z,29.35
2023-02-10T12:01:41.960Z,28.75
2023-02-10T12:04:43.005Z,28.86
2023-02-10T12:07:41.115Z,28.85
2023-02-10T12:10:18.902Z,30.07
2023-02-10T12:13:22.108Z,29.39
2023-02-10T12:16:11.714Z,29.09
2023-02-10T12:19:15.167Z,29.44
2023-02-10T12:22:13.097Z,29.94
2023-02-10T12:25:38.958Z,28.91
2023-02-10T12:28:45.753Z,29.53
2023-02-10T12:31:40.300Z,28.04
2023-02-10T12:34:33.687Z,28.01
2023-02-10T12:37:53.569Z,27.86
2023-02-10T12:40:54.297Z,27.08
2023-02-10T12:43:35.893Z,27.37
2023-02-10T12:46:14.846Z,26.74
2023-02-10T12:48:58.267Z,26.37
2023-02-10T12:52:02.676Z,27.22
2023-02-10T12:55:15.398Z,27.76
2023-02-10T12:58:03.966Z,26.09
2023-02-10T13:00:47.414Z,25.46
2023-02-10T13:03:35.876Z,26.08
2023-02-10T13:06:21.669Z,24.91
2023-02-10T13:09:33.821Z,24.71
2023-02-10T13:12:04.598Z,24.02
2023-02-10T13:14:34.993Z,24.27
2023-02-10T13:17:03.690Z,23.82
2023-02-10T13:19:54.983Z,22.84
2023-02-10T13:22:33.093Z,22.32
2023-02-10T13:25:27.400Z,21.87
2023-02-10T13:28:16.760Z,22.03
2023-02-10T13:31:22.535Z,21.84
2023-02-10T13:34:18.644Z,21.82
2023-02-10T13:37:17.496Z,22.02
2023-02-10T13:40:21.657Z,21.80
2023-02-10T13:43:03.061Z,21.02
2023-02-10T13:45:38.216Z,22.23
2023-02-10T13:48:30.839Z,22.13
2023-02-10T13:51:02.875Z,21.91
2023-02-10T13:53:36.211Z,21.91
2023-02-10T13:56:19.611Z,21.93
2023-02-10T13:59:26.044Z,22.47
2023-02-10T14:02:10.194Z,23.20
2023-02-10T14:04:48.245Z,23.56
2023-02-10T14:07:37.268Z,22.96
2023-02-10T14:10:24.657Z,22.87
2023-02-10T14:13:00.205Z,23.03
2023-02-10T14:15:39.333Z,23.54
2023-02-10T14:18:33.973Z,23.09
2023-02-10T14:21:08.017Z,23.11
2023-02-10T14:23:41.218Z,22.13
2023-02-10T14:26:20.046Z,22.07
2023-02-10T14:28:55.008Z,22.29
2023-02-10T14:31:40.208Z,21.92
2023-02-10T14:34:31.684Z,22.32
2023-02-10T14:37:22.723Z,21.84
2023-02-10T14:40:00.934Z,21.44
2023-02-10T14:42:31.999Z,21.68
2023-02-10T14:45:02.796Z,21.66
2023-02-10T14:47:38.367Z,20.89
2023-02-10T14:50:08.250Z,20.40
2023-02-10T14:52:47.009Z,20.29
2023-02-10T14:55:28.585Z,20.17
2023-02-10T14:58:12.640Z,20.24
2023-02-10T15:00:54.412Z,20.80
2023-02-10T15:03:23.835Z,20.28
2023-02-10T15:05:56.467Z,21.10
2023-02-10T15:08:34.523Z,21.31
2023-02-10T15:11:06.501Z,22.07
2023-02-10T15:13:44.149Z,23.66
2023-02-10T15:16:15.832Z,24.67
2023-02-10T15:18:48.976Z,25.29
2023-02-10T15:21:51.924Z,27.08
2023-02-10T15:24:32.239Z,27.64
2023-02-10T15:27:29.247Z,28.80
2023-02-10T15:30:09.087Z,29.33
2023-02-10T15:32:38.591Z,30.76
2023-02-10T15:35:08.723Z,31.47
2023-02-10T15:37:39.028Z,32.13
2023-02-10T15:40:27.205Z,33.22
2023-02-10T15:43:01.030Z,33.57
2023-02-10T15:45:28.683Z,33.61
2023-02-10T15:48:07.992Z,34.00
2023-02-10T15:50:38.554Z,34.32
2023-02-10T15:53:11.961Z,34.58
2023-02-10T15:55:42.411Z,35.41
2023-02-10T15:58:13.151Z,35.32
2023-02-10T16:00:43.123Z,36.07
2023-02-10T16:03:11.627Z,36.24
2023-02-10T16:05:40.358Z,36.69
2023-02-10T16:08:26.348Z,37.07
2023-02-10T16:10:54.109Z,37.33
2023-02-10T16:13:22.188Z,37.62
2023-02-10T16:15:52.427Z,37.92
2023-02-10T16:18:25.554Z,38.29
2023-02-10T16:20:53.288Z,39.02
2023-02-10T16:23:21.610Z,38.92
2023-02-10T16:25:50.427Z,39.16
2023-02-10T16:28:20.478Z,39.32
2023-02-10T16:30:48.884Z,39.76
2023-02-10T16:33:16.914Z,40.22
2023-02-10T16:35:44.569Z,40.67
2023-02-10T16:38:17.603Z,40.41
2023-02-10T16:40:45.744Z,41.35
2023-02-10T16:43:13.696Z,40.99
2023-02-10T16:45:41.314Z,41.31
2023-02-10T16:48:13.742Z,41.76
2023-02-10T16:50:43.362Z,42.48
2023-02-10T16:53:12.377Z,42.43
2023-02-10T16:55:41.430Z,42.62
2023-02-10T16:58:16.633Z,43.01
2023-02-10T17:00:45.130Z,43.78
2023-02-10T17:03:13.416Z,43.67
2023-02-10T17:05:41.432Z,44.55
2023-02-10T17:08:10.919Z,44.66
2023-02-10T17:10:39.132Z,44.63
2023-02-10T17:13:08.433Z,45.55
2023-02-10T17:15:36.352Z,45.56
2023-02-10T17:18:05.520Z,45.44
2023-02-10T17:20:35.411Z,46.20
2023-02-10T17:23:03.868Z,46.22
2023-02-10T17:25:32.133Z,46.68
2023-02-10T17:28:00.067Z,46.33
2023-02-10T17:30:28.472Z,46.51
2023-02-10T17:32:56.628Z,46.44
2023-02-10T17:35:24.997Z,46.75
2023-02-10T17:38:11.632Z,46.94
2023-02-10T17:40:39.298Z,46.88
2023-02-10T17:43:07.292Z,46.76
2023-02-10T17:45:34.817Z,47.01
2023-02-10T17:48:02.801Z,47.31
2023-02-10T17:50:30.260Z,46.79
2023-02-10T17:52:58.174Z,47.35
2023-02-10T17:55:26.001Z,47.75
2023-02-10T17:57:53.950Z,47.26
2023-02-10T18:00:21.803Z,46.92
2023-02-10T18:02:49.850Z,47.03
2023-02-10T18:05:17.890Z,47.73
2023-02-10T18:07:46.705Z,47.74
2023-02-10T18:10:15.151Z,47.57
2023-02-10T18:12:43.046Z,47.94
2023-02-10T18:15:11.981Z,48.17
2023-02-10T18:17:39.939Z,48.47
2023-02-10T18:20:08.901Z,48.15
2023-02-10T18:22:37.096Z,47.86
2023-02-10T18:25:05.937Z,48.31
2023-02-10T18:27:34.532Z,48.69
2023-02-10T18:30:04.002Z,48.98
2023-02-10T18:32:32.226Z,48.40
2023-02-10T18:34:59.908Z,47.75
2023-02-10T18:37:28.080Z,48.18
2023-02-10T18:39:56.819Z,48.18
2023-02-10T18:42:25.070Z,48.20
2023-02-10T18:44:52.917Z,48.40
2023-02-10T18:47:22.905Z,48.41
2023-02-10T18:49:51.817Z,47.25
2023-02-10T18:52:20.237Z,47.78
2023-02-10T18:54:48.360Z,47.59
2023-02-10T18:57:16.234Z,47.01
2023-02-10T18:59:43.863Z,46.98
2023-02-10T19:02:14.092Z,47.40
2023-02-10T19:04:41.700Z,47.19
2023-02-10T19:07:10.218Z,47.45
2023-02-10T19:09:39.326Z,47.35
2023-02-10T19:12:08.984Z,47.43
2023-02-10T19:14:36.511Z,47.99
2023-02-10T19:17:04.444Z,47.68
2023-02-10T19:19:31.950Z,47.91
2023-02-10T19:21:59.895Z,47.79
2023-02-10T19:24:27.478Z,48.68
2023-02-10T19:26:55.567Z,47.58
2023-02-10T19:29:23.487Z,48.34
2023-02-10T19:31:51.533Z,47.91
2023-02-10T19:34:20.252Z,47.71
2023-02-10T19:36:48.402Z,48.00
2023-02-10T19:39:16.677Z,48.69
2023-02-10T19:41:45.834Z,48.51
2023-02-10T19:44:20.425Z,49.61
2023-02-10T19:46:48.902Z,49.02
2023-02-10T19:49:17.649Z,49.38
2023-02-10T19:51:46.409Z,49.03
2023-02-10T19:54:14.863Z,49.29
2023-02-10T19:56:42.781Z,49.91
2023-02-10T19:59:11.973Z,50.07
2023-02-10T20:01:40.381Z,50.26
2023-02-10T20:04:08.899Z,50.14
2023-02-10T20:06:42.092Z,50.11
2023-02-10T20:09:11.453Z,50.23
2023-02-10T20:11:48.255Z,51.22
2023-02-10T20:14:23.663Z,51.39
2023-02-10T20:16:58.552Z,50.82
2023-02-10T20:19:32.441Z,50.20
2023-02-10T20:22:02.891Z,49.08
2023-02-10T20:24:31.362Z,48.45
2023-02-10T20:26:59.277Z,48.51
2023-02-10T20:29:26.980Z,48.96
2023-02-10T20:31:54.993Z,49.06
2023-02-10T20:34:22.899Z,49.18
2023-02-10T20:36:52.483Z,49.03
2023-02-10T20:39:20.436Z,49.50
2023-02-10T20:41:48.308Z,48.84
2023-02-10T20:44:16.817Z,49.10
2023-02-10T20:46:45.735Z,49.69
2023-02-10T20:49:13.674Z,50.09
2023-02-10T20:51:41.623Z,50.04
2023-02-10T20:54:09.169Z,49.81
2023-02-10T20:56:37.010Z,49.59
2023-02-10T20:59:07.096Z,50.00
2023-02-10T21:01:35.148Z,49.38
2023-02-10T21:04:03.186Z,49.83
2023-02-10T21:06:31.202Z,50.36
2023-02-10T21:09:02.997Z,50.80
2023-02-10T21:11:32.629Z,50.98
2023-02-10T21:14:00.112Z,50.31
2023-02-10T21:16:29.380Z,50.73
2023-02-10T21:18:59.865Z,50.49
2023-02-10T21:21:30.949Z,50.59
2023-02-10T21:24:11.312Z,51.46
2023-02-10T21:26:51.511Z,51.53
2023-02-10T21:29:31.955Z,51.60
2023-02-10T21:32:55.220Z,51.53
2023-02-10T21:35:24.663Z,51.76
2023-02-10T21:37:52.412Z,52.20
2023-02-10T21:40:21.041Z,52.33
2023-02-10T21:42:48.656Z,52.57
2023-02-10T21:45:17.058Z,52.71
2023-02-10T21:47:44.577Z,52.08
2023-02-10T21:50:12.468Z,52.93
2023-02-10T21:52:39.973Z,52.26
2023-02-10T21:55:07.889Z,52.79
2023-02-10T21:57:35.401Z,52.87
2023-02-10T22:00:04.970Z,53.32
2023-02-10T22:02:34.898Z,53.48
2023-02-10T22:05:04.458Z,53.97
2023-02-10T22:07:32.033Z,54.95
2023-02-10T22:10:00.075Z,55.12
2023-02-10T22:12:27.608Z,54.89
2023-02-10T22:14:55.405Z,54.66
2023-02-10T22:17:22.992Z,54.40
2023-02-10T22:19:50.816Z,54.41
2023-02-10T22:22:18.323Z,54.96
2023-02-10T22:24:48.834Z,54.74
2023-02-10T22:27:17.474Z,55.25
2023-02-10T22:29:45.436Z,55.39
2023-02-10T22:32:13.411Z,55.15
2023-02-10T22:34:45.828Z,55.36
2023-02-10T22:37:13.543Z,55.37
2023-02-10T22:39:42.715Z,55.15
2023-02-10T22:42:10.706Z,54.14
2023-02-10T22:44:38.996Z,55.18
2023-02-10T22:47:06.483Z,55.26
2023-02-10T22:49:34.412Z,55.17
2023-02-10T22:52:01.959Z,56.17
2023-02-10T22:54:30.096Z,55.85
2023-02-10T22:56:57.882Z,56.06
2023-02-10T22:59:27.694Z,55.91
2023-02-10T23:01:58.793Z,56.11
2023-02-10T23:04:27.789Z,56.32
2023-02-10T23:06:55.910Z,56.42
2023-02-10T23:09:24.330Z,56.38
2023-02-10T23:11:52.634Z,56.40
2023-02-10T23:14:22.130Z,56.47
2023-02-10T23:16:55.996Z,56.56
2023-02-10T23:19:27.598Z,56.23
2023-02-10T23:21:57.446Z,56.91
2023-02-10T23:24:25.329Z,56.70
2023-02-10T23:26:52.969Z,57.06
2023-02-10T23:29:20.919Z,57.30
2023-02-10T23:31:48.915Z,56.86
2023-02-10T23:34:17.393Z,57.01
2023-02-10T23:36:46.781Z,56.78
2023-02-10T23:39:14.741Z,57.14
2023-02-10T23:41:42.281Z,58.00
2023-02-10T23:44:10.937Z,58.13
2023-02-10T23:46:40.689Z,57.79
2023-02-10T23:49:08.619Z,57.73
2023-02-10T23:51:36.089Z,58.13
2023-02-10T23:54:04.032Z,57.15
2023-02-10T23:56:31.687Z,56.69
2023-02-10T23:58:59.747Z,56.88
